createdAt,value
2023-06-19T00:00:10.619Z,34.00
2023-06-19T00:00:40.664Z,34.00
2023-06-19T00:01:10.692Z,34.00
2023-06-19T00:01:40.770Z,34.00
2023-06-19T00:02:10.851Z,34.01
2023-06-19T00:02:40.891Z,34.01
2023-06-19T00:03:10.984Z,33.98
2023-06-19T00:03:41.075Z,34.01
2023-06-19T00:04:11.137Z,34.00
2023-06-19T00:04:41.209Z,34.00
2023-06-19T00:05:11.243Z,34.00
2023-06-19T00:05:41.277Z,33.98
2023-06-19T00:06:11.313Z,34.01
2023-06-19T00:06:41.341Z,33.98
2023-06-19T00:07:11.372Z,34.00
2023-06-19T00:07:41.409Z,33.97
2023-06-19T00:08:11.439Z,33.98
2023-06-19T00:08:41.492Z,33.97
2023-06-19T00:09:11.511Z,34.01
2023-06-19T00:09:41.557Z,34.00
2023-06-19T00:10:11.586Z,33.98
2023-06-19T00:10:41.613Z,34.00
2023-06-19T00:11:11.647Z,34.00
2023-06-19T00:11:41.668Z,33.97
2023-06-19T00:12:11.701Z,34.00
2023-06-19T00:12:41.742Z,34.00
2023-06-19T00:13:11.761Z,33.98
2023-06-19T00:13:41.793Z,33.96
2023-06-19T00:14:11.860Z,33.98
2023-06-19T00:14:41.891Z,33.97
2023-06-19T00:15:11.922Z,33.98
2023-06-19T00:15:41.950Z,33.97
2023-06-19T00:16:12.020Z,33.97
2023-06-19T00:16:42.089Z,33.96
2023-06-19T00:17:12.147Z,33.96
2023-06-19T00:17:42.213Z,34.00
2023-06-19T00:18:12.174Z,33.97
2023-06-19T00:18:42.238Z,33.96
2023-06-19T00:19:12.274Z,33.96
2023-06-19T00:19:42.305Z,33.96
2023-06-19T00:20:12.339Z,33.97
2023-06-19T00:20:42.371Z,33.98
2023-06-19T00:21:12.417Z,33.98
2023-06-19T00:21:42.485Z,33.97
2023-06-19T00:22:12.524Z,33.98
2023-06-19T00:22:42.562Z,33.97
2023-06-19T00:23:12.608Z,33.97
2023-06-19T00:23:42.633Z,33.97
2023-06-19T00:24:12.727Z,33.98
2023-06-19T00:24:42.807Z,33.96
2023-06-19T00:25:12.763Z,33.96
2023-06-19T00:25:42.784Z,33.96
2023-06-19T00:26:12.817Z,33.97
2023-06-19T00:26:42.872Z,33.94
2023-06-19T00:27:12.913Z,33.94
2023-06-19T00:27:42.950Z,33.94
2023-06-19T00:28:12.984Z,33.97
2023-06-19T00:28:43.022Z,33.96
2023-06-19T00:29:13.049Z,33.97
2023-06-19T00:29:43.078Z,33.94
2023-06-19T00:30:13.143Z,33.94
2023-06-19T00:30:43.324Z,33.93
2023-06-19T00:31:13.166Z,33.96
2023-06-19T00:31:43.198Z,33.94
2023-06-19T00:32:13.228Z,33.96
2023-06-19T00:32:43.285Z,33.94
2023-06-19T00:33:13.321Z,33.96
2023-06-19T00:33:43.325Z,33.96
2023-06-19T00:34:52.109Z,33.90
2023-06-19T00:35:22.186Z,33.91
2023-06-19T00:35:52.263Z,33.90
2023-06-19T00:36:22.397Z,33.91
2023-06-19T00:36:52.375Z,33.91
2023-06-19T00:37:22.457Z,33.93
2023-06-19T00:37:52.546Z,33.88
2023-06-19T00:38:22.624Z,33.90
2023-06-19T00:38:52.706Z,33.88
2023-06-19T00:39:22.809Z,33.87
2023-06-19T00:39:52.867Z,33.87
2023-06-19T00:40:23.153Z,33.88
2023-06-19T00:40:53.027Z,33.88
2023-06-19T00:41:23.117Z,33.88
2023-06-19T00:41:53.224Z,33.88
2023-06-19T00:42:23.309Z,33.88
2023-06-19T00:42:53.389Z,33.88
2023-06-19T00:43:23.472Z,33.88
2023-06-19T00:43:53.558Z,33.91
2023-06-19T00:44:23.651Z,33.91
2023-06-19T00:44:53.759Z,33.90
2023-06-19T00:45:23.870Z,33.91
2023-06-19T00:45:54.051Z,33.88
2023-06-19T00:46:24.090Z,33.90
2023-06-19T00:46:54.110Z,33.88
2023-06-19T00:47:24.155Z,33.90
2023-06-19T00:47:54.158Z,33.90
2023-06-19T00:48:24.264Z,33.91
2023-06-19T00:48:54.262Z,33.91
2023-06-19T00:49:54.344Z,33.88
2023-06-19T00:50:24.878Z,33.88
2023-06-19T00:50:54.493Z,33.90
2023-06-19T00:51:24.491Z,33.88
2023-06-19T00:52:24.589Z,33.90
2023-06-19T00:52:54.689Z,33.90
2023-06-19T00:53:24.808Z,33.91
2023-06-19T00:53:54.801Z,33.88
2023-06-19T00:54:24.814Z,33.88
2023-06-19T00:54:54.832Z,33.88
2023-06-19T00:55:54.905Z,33.88
2023-06-19T00:56:24.892Z,33.90
2023-06-19T00:57:25.011Z,33.90
2023-06-19T00:57:55.018Z,33.90
2023-06-19T00:58:55.069Z,33.91
2023-06-19T00:59:25.096Z,33.88
2023-06-19T00:59:55.082Z,33.88
2023-06-19T01:00:25.384Z,33.88
2023-06-19T01:01:07.368Z,33.88
2023-06-19T01:01:25.355Z,33.88
2023-06-19T01:01:55.517Z,33.87
2023-06-19T01:02:25.444Z,33.90
2023-06-19T01:02:55.628Z,33.88
2023-06-19T01:03:25.586Z,33.91
2023-06-19T01:03:55.818Z,33.88
2023-06-19T01:04:25.684Z,33.90
2023-06-19T01:04:55.784Z,33.88
2023-06-19T01:05:25.835Z,33.88
2023-06-19T01:05:55.817Z,33.87
2023-06-19T01:06:25.950Z,33.88
2023-06-19T01:06:55.936Z,33.87
2023-06-19T01:07:26.058Z,33.88
2023-06-19T01:07:56.067Z,33.87
2023-06-19T01:08:26.171Z,33.88
2023-06-19T01:08:56.174Z,33.87
2023-06-19T01:09:26.302Z,33.87
2023-06-19T01:09:56.292Z,33.86
2023-06-19T01:10:26.547Z,33.86
2023-06-19T01:10:56.397Z,33.86
2023-06-19T01:11:27.891Z,33.87
2023-06-19T01:11:56.584Z,33.87
2023-06-19T01:12:26.705Z,33.88
2023-06-19T01:12:56.829Z,33.87
2023-06-19T01:13:26.832Z,33.87
2023-06-19T01:13:56.822Z,33.87
2023-06-19T01:14:26.852Z,33.90
2023-06-19T01:14:56.859Z,33.87
2023-06-19T01:15:26.869Z,33.86
2023-06-19T01:15:56.863Z,33.86
2023-06-19T01:16:27.004Z,33.84
2023-06-19T01:16:57.057Z,33.87
2023-06-19T01:17:27.055Z,33.88
2023-06-19T01:17:57.044Z,33.87
2023-06-19T01:18:27.048Z,33.84
2023-06-19T01:18:57.071Z,33.88
2023-06-19T01:19:27.077Z,33.88
2023-06-19T01:20:27.144Z,33.87
2023-06-19T01:20:57.267Z,33.84
2023-06-19T01:21:27.268Z,33.83
2023-06-19T01:21:57.376Z,33.86
2023-06-19T01:22:27.374Z,33.84
2023-06-19T01:22:57.538Z,33.87
2023-06-19T01:23:27.499Z,33.86
2023-06-19T01:23:57.581Z,33.84
2023-06-19T01:24:27.620Z,33.84
2023-06-19T01:24:57.610Z,33.86
2023-06-19T01:25:27.604Z,33.81
2023-06-19T01:25:57.743Z,33.84
2023-06-19T01:26:27.742Z,33.86
2023-06-19T01:27:27.793Z,33.84
2023-06-19T01:27:57.907Z,33.84
2023-06-19T01:28:27.906Z,33.84
2023-06-19T01:28:57.915Z,33.86
2023-06-19T01:29:27.897Z,33.83
2023-06-19T01:29:58.016Z,33.84
2023-06-19T01:30:28.011Z,33.84
2023-06-19T01:30:58.131Z,33.84
2023-06-19T01:31:28.124Z,33.84
2023-06-19T01:32:28.220Z,33.84
2023-06-19T01:32:58.376Z,33.84
2023-06-19T01:33:28.381Z,33.81
2023-06-19T01:33:58.391Z,33.83
2023-06-19T01:34:28.517Z,33.83
2023-06-19T01:34:58.485Z,33.83
2023-06-19T01:35:28.570Z,33.84
2023-06-19T01:35:58.649Z,33.84
2023-06-19T01:36:28.733Z,33.80
2023-06-19T01:36:58.814Z,33.83
2023-06-19T01:37:28.944Z,33.83
2023-06-19T01:37:59.037Z,33.84
2023-06-19T01:38:29.121Z,33.84
2023-06-19T01:38:59.196Z,33.83
2023-06-19T01:39:29.277Z,33.83
2023-06-19T01:39:59.357Z,33.81
2023-06-19T01:40:29.439Z,33.83
2023-06-19T01:40:59.516Z,33.83
2023-06-19T01:41:29.617Z,33.84
2023-06-19T01:41:59.673Z,33.83
2023-06-19T01:42:29.768Z,33.81
2023-06-19T01:42:59.850Z,33.81
2023-06-19T01:43:29.926Z,33.83
2023-06-19T01:44:00.019Z,33.81
2023-06-19T01:44:30.101Z,33.81
2023-06-19T01:45:00.219Z,33.83
2023-06-19T01:45:30.216Z,33.83
2023-06-19T01:46:30.410Z,33.81
2023-06-19T01:47:00.370Z,33.84
2023-06-19T01:47:30.458Z,33.83
2023-06-19T01:48:00.429Z,33.79
2023-06-19T01:48:30.449Z,33.80
2023-06-19T01:49:00.457Z,33.81
2023-06-19T01:49:30.450Z,33.81
2023-06-19T01:50:00.572Z,33.80
2023-06-19T01:50:30.562Z,33.81
2023-06-19T01:51:00.684Z,33.83
2023-06-19T01:51:30.691Z,33.81
2023-06-19T01:52:00.700Z,33.81
2023-06-19T01:52:30.713Z,33.81
2023-06-19T01:53:00.832Z,33.84
2023-06-19T01:53:30.821Z,33.81
2023-06-19T01:54:00.940Z,33.81
2023-06-19T01:54:31.057Z,33.81
2023-06-19T01:55:01.184Z,33.79
2023-06-19T01:55:31.171Z,33.80
2023-06-19T01:56:01.289Z,33.81
2023-06-19T01:56:31.419Z,33.79
2023-06-19T01:57:01.454Z,33.81
2023-06-19T01:57:31.418Z,33.80
2023-06-19T01:58:01.532Z,33.79
2023-06-19T01:58:31.529Z,33.80
2023-06-19T01:59:01.655Z,33.83
2023-06-19T01:59:31.788Z,33.80
2023-06-19T02:00:01.779Z,33.80
2023-06-19T02:01:01.843Z,33.80
2023-06-19T02:01:31.848Z,33.81
2023-06-19T02:02:01.836Z,33.80
2023-06-19T02:02:32.010Z,33.80
2023-06-19T02:03:01.978Z,33.80
2023-06-19T02:03:32.034Z,33.79
2023-06-19T02:04:02.070Z,33.79
2023-06-19T02:04:31.982Z,33.79
2023-06-19T02:05:01.999Z,33.80
2023-06-19T02:05:32.006Z,33.77
2023-06-19T02:06:02.015Z,33.79
2023-06-19T02:06:31.994Z,33.77
2023-06-19T02:07:02.119Z,33.79
2023-06-19T02:07:32.225Z,33.79
2023-06-19T02:08:02.341Z,33.80
2023-06-19T02:08:32.339Z,33.76
2023-06-19T02:09:32.416Z,33.79
2023-06-19T02:10:02.545Z,33.77
2023-06-19T02:10:32.553Z,33.79
2023-06-19T02:11:02.546Z,33.79
2023-06-19T02:12:02.622Z,33.77
2023-06-19T02:12:32.777Z,33.79
2023-06-19T02:13:02.754Z,33.77
2023-06-19T02:13:32.880Z,33.79
2023-06-19T02:14:03.000Z,33.79
2023-06-19T02:14:33.053Z,33.80
2023-06-19T02:15:03.170Z,33.77
2023-06-19T02:15:33.172Z,33.77
2023-06-19T02:16:03.203Z,33.79
2023-06-19T02:16:33.254Z,33.79
2023-06-19T02:17:03.280Z,33.77
2023-06-19T02:17:33.298Z,33.79
2023-06-19T02:18:03.375Z,33.77
2023-06-19T02:18:33.418Z,33.77
2023-06-19T02:19:03.547Z,33.76
2023-06-19T02:19:33.571Z,33.76
2023-06-19T02:20:03.560Z,33.77
2023-06-19T02:20:33.683Z,33.77
2023-06-19T02:21:03.816Z,33.77
2023-06-19T02:21:33.833Z,33.76
2023-06-19T02:22:03.861Z,33.77
2023-06-19T02:22:33.977Z,33.77
2023-06-19T02:23:03.970Z,33.76
2023-06-19T02:23:34.088Z,33.79
2023-06-19T02:24:04.282Z,33.77
2023-06-19T02:24:34.270Z,33.77
2023-06-19T02:25:04.265Z,33.77
2023-06-19T02:25:34.269Z,33.76
2023-06-19T02:26:04.400Z,33.77
2023-06-19T02:26:34.396Z,33.74
2023-06-19T02:27:04.513Z,33.76
2023-06-19T02:27:34.626Z,33.74
2023-06-19T02:28:04.802Z,33.76
2023-06-19T02:28:34.809Z,33.76
2023-06-19T02:29:04.895Z,33.77
2023-06-19T02:29:35.064Z,33.76
2023-06-19T02:30:05.120Z,33.74
2023-06-19T02:30:35.241Z,33.76
2023-06-19T02:31:05.354Z,33.76
2023-06-19T02:31:35.354Z,33.76
2023-06-19T02:32:05.468Z,33.77
2023-06-19T02:32:35.630Z,33.74
2023-06-19T02:33:05.702Z,33.74
2023-06-19T02:33:35.720Z,33.77
2023-06-19T02:34:05.835Z,33.76
2023-06-19T02:34:35.946Z,33.76
2023-06-19T02:35:06.014Z,33.76
2023-06-19T02:35:36.097Z,33.73
2023-06-19T02:36:06.181Z,33.77
2023-06-19T02:36:36.264Z,33.77
2023-06-19T02:37:06.335Z,33.77
2023-06-19T02:37:36.409Z,33.77
2023-06-19T02:38:06.501Z,33.74
2023-06-19T02:38:36.574Z,33.74
2023-06-19T02:39:06.655Z,33.74
2023-06-19T02:39:36.743Z,33.77
2023-06-19T02:40:06.830Z,33.76
2023-06-19T02:40:36.905Z,33.74
2023-06-19T02:41:06.992Z,33.74
2023-06-19T02:41:37.096Z,33.74
2023-06-19T02:42:07.164Z,33.76
2023-06-19T02:42:37.232Z,33.76
2023-06-19T02:43:07.344Z,33.73
2023-06-19T02:43:37.415Z,33.73
2023-06-19T02:44:07.511Z,33.74
2023-06-19T02:44:37.620Z,33.77
2023-06-19T02:45:07.606Z,33.73
2023-06-19T02:46:07.706Z,33.76
2023-06-19T02:46:37.702Z,33.74
2023-06-19T02:47:07.695Z,33.73
2023-06-19T02:47:37.901Z,33.73
2023-06-19T02:48:07.904Z,33.74
2023-06-19T02:48:37.909Z,33.76
2023-06-19T02:49:07.913Z,33.73
2023-06-19T02:49:37.909Z,33.74
2023-06-19T02:50:37.984Z,33.74
2023-06-19T02:51:08.136Z,33.74
2023-06-19T02:51:39.927Z,33.74
2023-06-19T02:52:08.171Z,33.73
2023-06-19T02:52:38.156Z,33.76
2023-06-19T02:53:08.285Z,33.74
2023-06-19T02:53:38.399Z,33.71
2023-06-19T02:54:08.393Z,33.74
2023-06-19T02:54:38.429Z,33.74
2023-06-19T02:55:08.777Z,33.74
2023-06-19T02:55:38.647Z,33.71
2023-06-19T02:56:08.787Z,33.71
2023-06-19T02:56:38.888Z,33.74
2023-06-19T02:57:08.890Z,33.74
2023-06-19T02:58:08.956Z,33.73
2023-06-19T02:58:39.115Z,33.73
2023-06-19T02:59:09.098Z,33.71
2023-06-19T02:59:39.207Z,33.71
2023-06-19T03:00:09.326Z,33.70
2023-06-19T03:00:39.328Z,33.73
2023-06-19T03:01:09.478Z,33.73
2023-06-19T03:01:39.507Z,33.73
2023-06-19T03:02:09.500Z,33.71
2023-06-19T03:02:39.577Z,33.71
2023-06-19T03:03:09.666Z,33.71
2023-06-19T03:03:39.725Z,33.70
2023-06-19T03:04:09.618Z,33.73
2023-06-19T03:04:39.736Z,33.74
2023-06-19T03:05:09.857Z,33.71
2023-06-19T03:05:39.864Z,33.73
2023-06-19T03:06:09.973Z,33.71
2023-06-19T03:06:39.970Z,33.74
2023-06-19T03:07:40.073Z,33.73
2023-06-19T03:08:10.067Z,33.71
2023-06-19T03:08:40.064Z,33.73
2023-06-19T03:09:10.058Z,33.70
2023-06-19T03:10:10.138Z,33.71
2023-06-19T03:10:40.138Z,33.70
2023-06-19T03:11:40.210Z,33.71
2023-06-19T03:12:10.329Z,33.70
2023-06-19T03:12:40.469Z,33.71
2023-06-19T03:13:10.455Z,33.71
2023-06-19T03:13:40.571Z,33.70
2023-06-19T03:14:10.704Z,33.70
2023-06-19T03:14:40.681Z,33.73
2023-06-19T03:15:10.800Z,33.70
2023-06-19T03:15:40.922Z,33.70
2023-06-19T03:16:10.915Z,33.73
2023-06-19T03:17:11.053Z,33.69
2023-06-19T03:17:41.004Z,33.71
2023-06-19T03:18:41.074Z,33.71
2023-06-19T03:19:11.066Z,33.66
2023-06-19T03:20:11.146Z,33.70
2023-06-19T03:20:41.279Z,33.67
2023-06-19T03:21:11.269Z,33.64
2023-06-19T03:21:41.398Z,33.64
2023-06-19T03:22:11.513Z,33.66
2023-06-19T03:22:41.509Z,33.66
2023-06-19T03:23:11.505Z,33.63
2023-06-19T03:24:11.594Z,33.62
2023-06-19T03:24:41.639Z,33.59
2023-06-19T03:25:11.613Z,33.56
2023-06-19T03:25:41.733Z,33.55
2023-06-19T03:26:11.743Z,33.52
2023-06-19T03:26:41.747Z,33.52
2023-06-19T03:27:11.853Z,33.48
2023-06-19T03:27:41.853Z,33.48
2023-06-19T03:28:11.965Z,33.46
2023-06-19T03:28:42.096Z,33.43
2023-06-19T03:29:12.198Z,33.37
2023-06-19T03:29:42.256Z,33.36
2023-06-19T03:30:12.227Z,33.33
2023-06-19T03:30:42.341Z,33.30
2023-06-19T03:31:12.355Z,33.28
2023-06-19T03:31:42.354Z,33.19
2023-06-19T03:32:12.464Z,33.15
2023-06-19T03:32:42.612Z,33.12
2023-06-19T03:33:12.689Z,33.12
2023-06-19T03:33:42.719Z,33.08
2023-06-19T03:34:12.730Z,32.98
2023-06-19T03:34:42.814Z,32.71
2023-06-19T03:35:12.904Z,32.80
2023-06-19T03:35:43.458Z,32.78
2023-06-19T03:36:13.078Z,32.77
2023-06-19T03:36:43.143Z,32.78
2023-06-19T03:37:13.224Z,32.77
2023-06-19T03:37:43.302Z,32.70
2023-06-19T03:38:13.380Z,32.59
2023-06-19T03:38:43.459Z,32.63
2023-06-19T03:39:13.534Z,32.63
2023-06-19T03:39:43.618Z,32.64
2023-06-19T03:40:13.696Z,32.69
2023-06-19T03:40:43.797Z,32.63
2023-06-19T03:41:13.847Z,32.67
2023-06-19T03:41:43.911Z,32.69
2023-06-19T03:42:13.997Z,32.67
2023-06-19T03:42:44.081Z,32.66
2023-06-19T03:43:14.156Z,32.67
2023-06-19T03:43:44.239Z,32.64
2023-06-19T03:44:14.317Z,32.66
2023-06-19T03:44:44.499Z,32.63
2023-06-19T03:45:14.459Z,32.53
2023-06-19T03:46:14.519Z,32.47
2023-06-19T03:46:44.520Z,32.36
2023-06-19T03:47:14.502Z,32.22
2023-06-19T03:47:44.653Z,32.01
2023-06-19T03:48:14.655Z,32.18
2023-06-19T03:48:44.638Z,32.20
2023-06-19T03:49:44.727Z,32.23
2023-06-19T03:50:21.132Z,32.23
2023-06-19T03:50:44.744Z,32.23
2023-06-19T03:51:14.743Z,32.22
2023-06-19T03:51:44.769Z,32.22
2023-06-19T03:52:14.759Z,32.19
2023-06-19T03:53:14.848Z,32.11
2023-06-19T03:53:44.832Z,32.16
2023-06-19T03:54:14.833Z,31.98
2023-06-19T03:54:44.833Z,31.98
2023-06-19T03:55:14.957Z,31.98
2023-06-19T03:55:44.954Z,31.94
2023-06-19T03:56:14.955Z,31.99
2023-06-19T03:56:45.075Z,32.05
2023-06-19T03:57:15.188Z,32.12
2023-06-19T03:57:45.184Z,32.15
2023-06-19T03:58:15.301Z,32.19
2023-06-19T03:58:45.420Z,32.16
2023-06-19T03:59:15.452Z,32.25
2023-06-19T03:59:45.439Z,32.20
2023-06-19T04:00:15.575Z,32.19
2023-06-19T04:00:45.689Z,32.25
2023-06-19T04:01:15.837Z,32.19
2023-06-19T04:01:45.887Z,32.26
2023-06-19T04:02:15.868Z,32.33
2023-06-19T04:02:46.036Z,32.36
2023-06-19T04:03:16.110Z,32.36
2023-06-19T04:03:46.153Z,32.33
2023-06-19T04:04:16.247Z,32.36
2023-06-19T04:04:46.246Z,32.23
2023-06-19T04:05:16.219Z,32.28
2023-06-19T04:05:46.340Z,32.29
2023-06-19T04:06:16.476Z,32.33
2023-06-19T04:06:46.450Z,32.32
2023-06-19T04:07:46.524Z,32.33
2023-06-19T04:08:16.548Z,32.36
2023-06-19T04:08:46.646Z,32.40
2023-06-19T04:09:16.636Z,32.37
2023-06-19T04:09:46.760Z,32.39
2023-06-19T04:10:16.913Z,32.39
2023-06-19T04:10:46.905Z,32.33
2023-06-19T04:11:17.022Z,32.35
2023-06-19T04:11:47.020Z,32.39
2023-06-19T04:12:17.131Z,32.39
2023-06-19T04:12:47.134Z,32.42
2023-06-19T04:13:47.213Z,32.39
2023-06-19T04:14:17.210Z,32.26
2023-06-19T04:14:47.332Z,32.25
2023-06-19T04:15:17.327Z,32.28
2023-06-19T04:15:49.418Z,32.23
2023-06-19T04:16:17.372Z,32.18
2023-06-19T04:17:17.421Z,32.02
2023-06-19T04:17:47.558Z,31.88
2023-06-19T04:18:17.577Z,31.71
2023-06-19T04:18:47.572Z,31.60
2023-06-19T04:19:47.666Z,31.53
2023-06-19T04:20:17.783Z,31.47
2023-06-19T04:20:47.901Z,31.47
2023-06-19T04:21:17.900Z,31.51
2023-06-19T04:22:18.005Z,31.29
2023-06-19T04:22:48.004Z,31.29
2023-06-19T04:23:48.099Z,31.36
2023-06-19T04:24:18.126Z,31.43
2023-06-19T04:24:48.123Z,31.33
2023-06-19T04:25:18.240Z,31.26
2023-06-19T04:25:48.238Z,31.37
2023-06-19T04:26:18.357Z,31.39
2023-06-19T04:26:48.472Z,31.28
2023-06-19T04:27:18.606Z,31.28
2023-06-19T04:27:48.594Z,31.29
2023-06-19T04:28:18.711Z,31.32
2023-06-19T04:28:48.717Z,31.34
2023-06-19T04:29:18.743Z,31.40
2023-06-19T04:30:18.843Z,31.46
2023-06-19T04:30:48.860Z,31.46
2023-06-19T04:31:18.968Z,31.43
2023-06-19T04:31:48.950Z,31.50
2023-06-19T04:32:49.070Z,31.44
2023-06-19T04:33:19.148Z,31.47
2023-06-19T04:33:49.134Z,31.48
2023-06-19T04:34:19.123Z,31.46
2023-06-19T04:34:49.225Z,31.50
2023-06-19T04:35:19.316Z,31.50
2023-06-19T04:35:49.401Z,31.36
2023-06-19T04:36:19.481Z,31.23
2023-06-19T04:36:49.571Z,31.09
2023-06-19T04:37:19.643Z,31.12
2023-06-19T04:37:49.777Z,31.16
2023-06-19T04:38:19.809Z,31.18
2023-06-19T04:38:51.809Z,31.18
2023-06-19T04:39:20.007Z,31.19
2023-06-19T04:39:50.088Z,31.20
2023-06-19T04:40:20.167Z,31.02
2023-06-19T04:40:50.258Z,31.02
2023-06-19T04:41:20.350Z,31.09
2023-06-19T04:41:50.418Z,31.09
2023-06-19T04:42:20.615Z,31.03
2023-06-19T04:42:50.586Z,31.06
2023-06-19T04:43:20.664Z,31.09
2023-06-19T04:43:50.740Z,31.09
2023-06-19T04:44:20.823Z,31.18
2023-06-19T04:44:50.815Z,31.22
2023-06-19T04:45:20.936Z,31.28
2023-06-19T04:45:51.003Z,31.32
2023-06-19T04:46:21.045Z,31.36
2023-06-19T04:46:51.052Z,31.43
2023-06-19T04:47:21.184Z,31.48
2023-06-19T04:47:53.805Z,31.47
2023-06-19T04:48:21.320Z,31.48
2023-06-19T04:48:51.308Z,31.48
2023-06-19T04:49:24.083Z,31.53
2023-06-19T04:49:51.387Z,31.51
2023-06-19T04:50:21.692Z,31.59
2023-06-19T04:50:51.529Z,31.61
2023-06-19T04:51:21.525Z,31.65
2023-06-19T04:52:21.607Z,31.63
2023-06-19T04:52:52.100Z,31.70
2023-06-19T04:53:21.674Z,31.59
2023-06-19T04:53:51.796Z,31.73
2023-06-19T04:54:21.850Z,31.78
2023-06-19T04:54:51.975Z,31.80
2023-06-19T04:55:21.963Z,31.81
2023-06-19T04:55:52.079Z,31.80
2023-06-19T04:56:22.085Z,31.88
2023-06-19T04:56:52.121Z,31.80
2023-06-19T04:57:22.242Z,31.81
2023-06-19T04:57:52.361Z,31.83
2023-06-19T04:58:22.363Z,31.83
2023-06-19T04:59:22.447Z,31.80
2023-06-19T04:59:52.455Z,31.80
2023-06-19T05:00:52.546Z,31.88
2023-06-19T05:01:22.590Z,31.88
2023-06-19T05:01:52.730Z,31.92
2023-06-19T05:02:22.636Z,31.94
2023-06-19T05:02:52.633Z,31.99
2023-06-19T05:03:22.632Z,32.01
2023-06-19T05:03:52.767Z,31.99
2023-06-19T05:04:22.814Z,32.07
2023-06-19T05:04:52.853Z,32.05
2023-06-19T05:05:24.714Z,32.01
2023-06-19T05:05:53.004Z,32.01
2023-06-19T05:06:22.975Z,32.02
2023-06-19T05:06:53.111Z,32.01
2023-06-19T05:07:23.124Z,32.01
2023-06-19T05:07:53.241Z,31.98
2023-06-19T05:08:23.358Z,32.02
2023-06-19T05:08:53.362Z,32.01
2023-06-19T05:09:53.454Z,32.04
2023-06-19T05:10:23.952Z,32.05
2023-06-19T05:10:53.507Z,31.89
2023-06-19T05:11:23.499Z,31.95
2023-06-19T05:11:53.502Z,31.96
2023-06-19T05:12:23.627Z,31.95
2023-06-19T05:12:53.739Z,31.87
2023-06-19T05:13:23.747Z,31.80
2023-06-19T05:13:53.745Z,31.87
2023-06-19T05:14:53.851Z,31.92
2023-06-19T05:15:23.846Z,31.95
2023-06-19T05:15:54.008Z,31.96
2023-06-19T05:16:23.998Z,31.96
2023-06-19T05:16:54.031Z,31.81
2023-06-19T05:17:24.140Z,31.81
2023-06-19T05:17:54.281Z,31.81
2023-06-19T05:18:24.255Z,31.77
2023-06-19T05:18:54.265Z,31.67
2023-06-19T05:19:24.297Z,31.56
2023-06-19T05:19:54.281Z,31.64
2023-06-19T05:20:54.399Z,31.67
2023-06-19T05:21:24.413Z,31.56
2023-06-19T05:22:24.480Z,31.73
2023-06-19T05:22:54.502Z,31.74
2023-06-19T05:23:24.560Z,31.78
2023-06-19T05:23:54.558Z,31.83
2023-06-19T05:24:24.565Z,31.85
2023-06-19T05:24:54.648Z,31.73
2023-06-19T05:25:24.673Z,31.73
2023-06-19T05:25:54.676Z,31.78
2023-06-19T05:26:24.683Z,31.80
2023-06-19T05:26:54.671Z,31.80
2023-06-19T05:27:24.807Z,31.78
2023-06-19T05:27:54.807Z,31.73
2023-06-19T05:28:24.847Z,31.75
2023-06-19T05:28:54.828Z,31.67
2023-06-19T05:29:54.914Z,31.64
2023-06-19T05:30:25.245Z,31.70
2023-06-19T05:30:55.137Z,31.73
2023-06-19T05:31:25.141Z,31.75
2023-06-19T05:31:55.139Z,31.70
2023-06-19T05:32:25.221Z,31.60
2023-06-19T05:32:55.256Z,31.67
2023-06-19T05:33:25.251Z,31.59
2023-06-19T05:33:55.368Z,31.67
2023-06-19T05:34:25.490Z,31.67
2023-06-19T05:34:55.584Z,31.63
2023-06-19T05:35:25.663Z,31.64
2023-06-19T05:35:55.753Z,31.73
2023-06-19T05:36:25.860Z,31.73
2023-06-19T05:36:55.953Z,31.78
2023-06-19T05:37:26.037Z,31.85
2023-06-19T05:37:56.111Z,31.88
2023-06-19T05:38:26.191Z,31.89
2023-06-19T05:38:56.276Z,31.96
2023-06-19T05:39:26.354Z,31.94
2023-06-19T05:39:56.436Z,31.88
2023-06-19T05:40:26.533Z,31.87
2023-06-19T05:40:56.609Z,31.92
2023-06-19T05:41:26.703Z,31.92
2023-06-19T05:41:56.785Z,31.91
2023-06-19T05:42:26.874Z,31.95
2023-06-19T05:42:56.939Z,31.88
2023-06-19T05:43:27.024Z,31.88
2023-06-19T05:43:57.111Z,31.88
2023-06-19T05:44:27.208Z,31.84
2023-06-19T05:44:57.323Z,31.77
2023-06-19T05:45:27.343Z,31.68
2023-06-19T05:45:57.481Z,31.51
2023-06-19T05:46:27.455Z,31.54
2023-06-19T05:46:57.466Z,31.56
2023-06-19T05:47:27.653Z,31.32
2023-06-19T05:47:57.657Z,31.16
2023-06-19T05:48:27.664Z,31.20
2023-06-19T05:48:57.646Z,31.22
2023-06-19T05:49:27.765Z,31.19
2023-06-19T05:49:57.764Z,31.22
2023-06-19T05:50:27.851Z,31.08
2023-06-19T05:50:57.837Z,31.13
2023-06-19T05:51:57.937Z,31.12
2023-06-19T05:52:28.059Z,31.06
2023-06-19T05:52:58.061Z,31.13
2023-06-19T05:53:28.060Z,31.16
2023-06-19T05:54:28.131Z,31.22
2023-06-19T05:54:58.164Z,31.33
2023-06-19T05:55:28.238Z,30.89
2023-06-19T05:55:58.162Z,31.08
2023-06-19T05:56:28.166Z,31.18
2023-06-19T05:56:58.266Z,31.08
2023-06-19T05:57:28.269Z,31.13
2023-06-19T05:57:58.268Z,30.94
2023-06-19T05:58:28.380Z,31.06
2023-06-19T05:58:58.499Z,31.02
2023-06-19T05:59:28.496Z,31.02
2023-06-19T05:59:58.628Z,31.09
2023-06-19T06:00:28.849Z,31.05
2023-06-19T06:00:58.977Z,31.22
2023-06-19T06:01:28.891Z,31.28
2023-06-19T06:01:58.896Z,31.20
2023-06-19T06:02:29.044Z,31.26
2023-06-19T06:02:59.106Z,31.34
2023-06-19T06:03:29.114Z,31.20
2023-06-19T06:03:59.163Z,31.40
2023-06-19T06:04:29.245Z,31.41
2023-06-19T06:04:59.306Z,31.44
2023-06-19T06:05:29.374Z,31.41
2023-06-19T06:05:59.373Z,31.37
2023-06-19T06:06:29.492Z,31.18
2023-06-19T06:06:59.497Z,31.22
2023-06-19T06:07:59.576Z,31.28
2023-06-19T06:08:29.700Z,31.20
2023-06-19T06:08:59.695Z,31.33
2023-06-19T06:09:29.711Z,31.20
2023-06-19T06:09:59.697Z,31.30
2023-06-19T06:10:29.903Z,31.37
2023-06-19T06:10:59.830Z,31.15
2023-06-19T06:11:29.941Z,31.09
2023-06-19T06:11:59.933Z,31.02
2023-06-19T06:12:30.054Z,30.66
2023-06-19T06:13:00.179Z,30.89
2023-06-19T06:13:30.297Z,31.05
2023-06-19T06:14:00.406Z,31.15
2023-06-19T06:14:30.315Z,31.25
2023-06-19T06:15:30.390Z,31.15
2023-06-19T06:16:00.506Z,31.29
2023-06-19T06:16:30.637Z,31.41
2023-06-19T06:17:00.711Z,31.33
2023-06-19T06:17:30.683Z,31.29
2023-06-19T06:18:00.749Z,31.28
2023-06-19T06:18:30.855Z,31.29
2023-06-19T06:19:00.881Z,31.20
2023-06-19T06:19:33.008Z,31.23
2023-06-19T06:20:01.047Z,31.33
2023-06-19T06:20:31.045Z,31.34
2023-06-19T06:21:01.162Z,31.34
2023-06-19T06:21:31.276Z,31.37
2023-06-19T06:22:01.279Z,31.41
2023-06-19T06:22:31.397Z,31.25
2023-06-19T06:23:01.540Z,31.33
2023-06-19T06:23:31.547Z,31.13
2023-06-19T06:24:01.613Z,31.13
2023-06-19T06:24:31.669Z,31.16
2023-06-19T06:25:01.689Z,31.19
2023-06-19T06:25:31.668Z,31.26
2023-06-19T06:26:31.747Z,31.28
2023-06-19T06:27:01.759Z,31.28
2023-06-19T06:27:31.865Z,31.22
2023-06-19T06:28:01.868Z,31.23
2023-06-19T06:28:31.893Z,31.28
2023-06-19T06:29:31.940Z,31.30
2023-06-19T06:30:01.933Z,31.34
2023-06-19T06:30:32.062Z,31.41
2023-06-19T06:31:02.177Z,31.46
2023-06-19T06:31:32.314Z,31.47
2023-06-19T06:32:02.289Z,31.53
2023-06-19T06:32:32.493Z,31.59
2023-06-19T06:33:02.566Z,31.64
2023-06-19T06:33:32.634Z,31.70
2023-06-19T06:34:02.617Z,31.73
2023-06-19T06:34:35.513Z,31.75
2023-06-19T06:35:41.523Z,31.80
2023-06-19T06:36:13.792Z,31.83
2023-06-19T06:36:49.502Z,31.85
2023-06-19T06:37:11.827Z,31.88
2023-06-19T06:37:41.924Z,31.91
2023-06-19T06:38:11.997Z,31.95
2023-06-19T06:38:42.113Z,31.95
2023-06-19T06:39:12.212Z,31.98
2023-06-19T06:39:42.287Z,31.99
2023-06-19T06:40:12.588Z,32.07
2023-06-19T06:40:42.466Z,32.08
2023-06-19T06:41:12.507Z,32.12
2023-06-19T06:41:42.593Z,32.12
2023-06-19T06:42:12.711Z,32.18
2023-06-19T06:42:42.788Z,32.16
2023-06-19T06:43:12.890Z,32.12
2023-06-19T06:43:42.966Z,32.16
2023-06-19T06:44:13.050Z,32.16
2023-06-19T06:44:43.139Z,32.19
2023-06-19T06:45:13.223Z,32.18
2023-06-19T06:45:43.603Z,32.26
2023-06-19T06:46:13.355Z,32.28
2023-06-19T06:46:43.388Z,32.28
2023-06-19T06:47:13.370Z,32.28
2023-06-19T06:47:43.516Z,32.33
2023-06-19T06:48:13.614Z,32.36
2023-06-19T06:48:43.637Z,32.36
2023-06-19T06:49:13.639Z,32.35
2023-06-19T06:50:13.707Z,32.36
2023-06-19T06:50:43.842Z,32.36
2023-06-19T06:51:13.822Z,32.37
2023-06-19T06:52:13.914Z,32.43
2023-06-19T06:52:44.039Z,32.44